createdAt,value
2022-08-09T00:00:20.793Z,56.02
2022-08-09T00:02:49.925Z,55.85
2022-08-09T00:06:18.957Z,56.05
2022-08-09T00:08:11.295Z,56.61
2022-08-09T00:10:40.815Z,56.96
2022-08-09T00:13:17.522Z,56.56
2022-08-09T00:15:59.198Z,56.49
2022-08-09T00:18:35.768Z,56.69
2022-08-09T00:21:05.037Z,57.13
2022-08-09T00:23:54.986Z,57.15
2022-08-09T00:26:19.870Z,57.23
2022-08-09T00:28:58.557Z,57.56
2022-08-09T00:31:55.863Z,58.38
2022-08-09T00:34:14.363Z,58.42
2022-08-09T00:36:42.110Z,58.13
2022-08-09T00:40:09.429Z,57.98
2022-08-09T00:44:14.089Z,58.89
2022-08-09T00:44:46.945Z,58.74
2022-08-09T00:47:15.629Z,58.74
2022-08-09T00:49:43.803Z,58.79
2022-08-09T00:52:30.199Z,59.23
2022-08-09T00:55:00.349Z,59.78
2022-08-09T00:57:34.300Z,59.63
2022-08-09T01:00:21.784Z,59.82
2022-08-09T01:02:57.888Z,59.74
2022-08-09T01:05:51.516Z,59.69
2022-08-09T01:08:48.988Z,59.44
2022-08-09T01:11:58.595Z,59.46
2022-08-09T01:14:32.258Z,59.79
2022-08-09T01:17:09.162Z,60.41
2022-08-09T01:20:01.703Z,61.06
2022-08-09T01:24:01.078Z,61.68
2022-08-09T01:26:09.847Z,61.08
2022-08-09T01:28:41.858Z,61.51
2022-08-09T01:32:30.058Z,61.76
2022-08-09T01:34:06.548Z,61.66
2022-08-09T01:36:38.730Z,62.04
2022-08-09T01:39:06.859Z,62.11
2022-08-09T01:41:53.701Z,62.10
2022-08-09T01:44:29.978Z,62.96
2022-08-09T01:46:59.948Z,63.40
2022-08-09T01:49:38.818Z,63.75
2022-08-09T01:52:09.363Z,64.06
2022-08-09T01:54:47.385Z,64.84
2022-08-09T01:57:23.778Z,65.22
2022-08-09T02:00:00.167Z,66.17
2022-08-09T02:02:32.041Z,65.51
2022-08-09T02:05:05.588Z,65.74
2022-08-09T02:08:39.589Z,66.30
2022-08-09T02:10:40.200Z,66.15
2022-08-09T02:13:12.557Z,66.16
2022-08-09T02:15:50.350Z,66.36
2022-08-09T02:18:23.056Z,66.55
2022-08-09T02:20:56.479Z,67.18
2022-08-09T02:23:27.919Z,66.77
2022-08-09T02:26:01.316Z,66.83
2022-08-09T02:28:37.360Z,66.81
2022-08-09T02:31:27.933Z,66.96
2022-08-09T02:34:07.043Z,66.78
2022-08-09T02:36:43.341Z,67.04
2022-08-09T02:39:20.109Z,67.14
2022-08-09T02:42:04.973Z,66.96
2022-08-09T02:44:36.200Z,67.08
2022-08-09T02:47:11.311Z,66.95
2022-08-09T02:50:02.573Z,66.63
2022-08-09T02:52:49.763Z,66.56
2022-08-09T02:55:24.671Z,66.39
2022-08-09T02:58:36.396Z,66.35
2022-08-09T03:01:04.513Z,66.42
2022-08-09T03:04:12.842Z,66.45
2022-08-09T03:06:27.252Z,66.24
2022-08-09T03:08:56.088Z,66.45
2022-08-09T03:11:30.175Z,66.35
2022-08-09T03:14:13.206Z,66.33
2022-08-09T03:16:44.848Z,66.10
2022-08-09T03:19:14.294Z,65.92
2022-08-09T03:22:03.081Z,65.29
2022-08-09T03:24:42.696Z,64.23
2022-08-09T03:27:17.697Z,63.31
2022-08-09T03:29:58.188Z,62.79
2022-08-09T03:32:32.329Z,62.75
2022-08-09T03:35:00.396Z,62.76
2022-08-09T03:37:54.647Z,63.00
2022-08-09T03:40:17.987Z,63.31
2022-08-09T03:42:46.590Z,63.13
2022-08-09T03:45:13.793Z,62.93
2022-08-09T03:47:46.519Z,62.84
2022-08-09T03:50:18.912Z,62.57
2022-08-09T03:53:03.147Z,62.10
2022-08-09T03:55:30.237Z,61.83
2022-08-09T03:58:14.802Z,61.50
2022-08-09T04:00:47.804Z,61.21
2022-08-09T04:03:19.738Z,61.16
2022-08-09T04:06:04.573Z,61.45
2022-08-09T04:08:34.560Z,61.77
2022-08-09T04:11:02.028Z,62.12
2022-08-09T04:14:36.967Z,62.69
2022-08-09T04:16:20.659Z,63.42
2022-08-09T04:18:50.967Z,63.18
2022-08-09T04:21:17.895Z,63.59
2022-08-09T04:23:54.485Z,63.82
2022-08-09T04:26:24.580Z,64.00
2022-08-09T04:28:54.071Z,64.25
2022-08-09T04:31:26.427Z,64.58
2022-08-09T04:34:04.675Z,64.59
2022-08-09T04:36:33.680Z,64.14
2022-08-09T04:39:02.985Z,64.49
2022-08-09T04:41:32.502Z,64.42
2022-08-09T04:44:05.931Z,64.54
2022-08-09T04:46:57.374Z,64.90
2022-08-09T04:49:40.220Z,64.66
2022-08-09T04:52:10.779Z,64.54
2022-08-09T04:54:38.028Z,64.61
2022-08-09T04:57:04.874Z,64.26
2022-08-09T04:59:36.144Z,63.78
2022-08-09T05:02:03.235Z,63.75
2022-08-09T05:04:30.854Z,63.29
2022-08-09T05:06:58.358Z,63.15
2022-08-09T05:09:25.194Z,62.89
2022-08-09T05:12:09.784Z,62.97
2022-08-09T05:14:39.226Z,63.16
2022-08-09T05:17:15.282Z,62.71
2022-08-09T05:19:56.953Z,62.13
2022-08-09T05:22:36.084Z,62.24
2022-08-09T05:25:11.143Z,61.95
2022-08-09T05:27:39.003Z,60.92
2022-08-09T05:30:13.580Z,60.31
2022-08-09T05:32:41.056Z,60.05
2022-08-09T05:35:11.427Z,59.59
2022-08-09T05:37:47.855Z,59.16
2022-08-09T05:40:18.361Z,58.60
2022-08-09T05:42:45.371Z,58.52
2022-08-09T05:45:14.319Z,58.27
2022-08-09T05:47:51.735Z,58.06
2022-08-09T05:50:39.963Z,57.46
2022-08-09T05:53:21.753Z,57.54
2022-08-09T05:56:00.015Z,56.57
2022-08-09T05:58:28.482Z,56.36
2022-08-09T06:00:55.147Z,56.03
2022-08-09T06:03:21.833Z,55.42
2022-08-09T06:05:57.369Z,55.23
2022-08-09T06:08:31.861Z,55.06
2022-08-09T06:10:59.232Z,54.39
2022-08-09T06:13:28.640Z,54.04
2022-08-09T06:16:04.686Z,54.36
2022-08-09T06:18:32.696Z,54.15
2022-08-09T06:21:01.078Z,53.61
2022-08-09T06:23:58.688Z,53.89
2022-08-09T06:26:20.321Z,53.08
2022-08-09T06:29:00.106Z,53.29
2022-08-09T06:31:39.341Z,53.48
2022-08-09T06:34:22.519Z,53.49
2022-08-09T06:36:59.157Z,53.75
2022-08-09T06:39:39.610Z,53.15
2022-08-09T06:42:13.838Z,52.64
2022-08-09T06:44:40.513Z,52.59
2022-08-09T06:47:08.465Z,52.71
2022-08-09T06:50:12.083Z,52.38
2022-08-09T06:52:23.687Z,51.11
2022-08-09T06:54:52.181Z,50.82
2022-08-09T06:57:25.758Z,51.32
2022-08-09T07:00:51.955Z,50.75
2022-08-09T07:02:56.101Z,50.85
2022-08-09T07:05:24.606Z,51.13
2022-08-09T07:08:11.214Z,51.23
2022-08-09T07:10:39.010Z,50.16
2022-08-09T07:13:27.878Z,50.11
2022-08-09T07:16:39.258Z,49.49
2022-08-09T07:18:39.393Z,49.01
2022-08-09T07:21:07.674Z,49.27
2022-08-09T07:23:36.222Z,49.12
2022-08-09T07:26:04.246Z,48.97
2022-08-09T07:28:34.872Z,49.00
2022-08-09T07:31:04.905Z,48.88
2022-08-09T07:33:52.795Z,48.54
2022-08-09T07:36:22.136Z,48.13
2022-08-09T07:38:58.232Z,47.68
2022-08-09T07:41:27.825Z,46.73
2022-08-09T07:44:00.050Z,47.01
2022-08-09T07:46:27.703Z,46.96
2022-08-09T07:48:59.227Z,46.95
2022-08-09T07:52:05.485Z,46.15
2022-08-09T07:54:15.547Z,45.45
2022-08-09T07:56:49.665Z,45.68
2022-08-09T07:59:34.885Z,45.03
2022-08-09T08:02:08.821Z,45.53
2022-08-09T08:04:36.643Z,45.24
2022-08-09T08:07:14.837Z,45.77
2022-08-09T08:09:55.205Z,45.29
2022-08-09T08:12:43.758Z,44.14
2022-08-09T08:15:16.450Z,44.53
2022-08-09T08:17:54.514Z,44.18
2022-08-09T08:20:30.485Z,43.29
2022-08-09T08:23:06.946Z,43.59
2022-08-09T08:25:48.377Z,43.05
2022-08-09T08:28:18.141Z,42.64
2022-08-09T08:30:52.953Z,41.65
2022-08-09T08:33:23.040Z,42.28
2022-08-09T08:35:58.537Z,42.59
2022-08-09T08:38:29.243Z,40.55
2022-08-09T08:40:57.779Z,41.20
2022-08-09T08:43:26.545Z,41.21
2022-08-09T08:46:03.695Z,40.59
2022-08-09T08:48:37.115Z,40.50
2022-08-09T08:51:04.263Z,40.45
2022-08-09T08:53:36.870Z,39.91
2022-08-09T08:56:05.126Z,39.24
2022-08-09T08:58:33.528Z,39.06
2022-08-09T09:01:08.985Z,37.51
2022-08-09T09:03:50.545Z,36.60
2022-08-09T09:06:19.588Z,37.88
2022-08-09T09:08:52.593Z,37.33
2022-08-09T09:11:20.801Z,36.92
2022-08-09T09:13:56.933Z,36.73
2022-08-09T09:16:29.867Z,36.34
2022-08-09T09:19:37.618Z,36.23
2022-08-09T09:22:04.388Z,36.76
2022-08-09T09:24:37.246Z,37.98
2022-08-09T09:27:06.115Z,37.95
2022-08-09T09:30:10.570Z,37.96
2022-08-09T09:32:34.373Z,38.13
2022-08-09T09:35:10.782Z,36.50
2022-08-09T09:37:45.492Z,36.35
2022-08-09T09:40:12.435Z,36.35
2022-08-09T09:42:46.096Z,35.61
2022-08-09T09:45:14.510Z,35.43
2022-08-09T09:47:58.283Z,35.41
2022-08-09T09:50:50.575Z,36.08
2022-08-09T09:53:43.791Z,36.91
2022-08-09T09:56:31.124Z,36.40
2022-08-09T09:58:57.558Z,35.77
2022-08-09T10:01:36.829Z,35.24
2022-08-09T10:04:22.749Z,34.47
2022-08-09T10:06:57.468Z,34.78
2022-08-09T10:09:24.360Z,33.97
2022-08-09T10:12:12.485Z,34.29
2022-08-09T10:14:48.712Z,35.22
2022-08-09T10:17:50.272Z,33.17
2022-08-09T10:20:27.171Z,33.65
2022-08-09T10:23:17.173Z,31.64
2022-08-09T10:26:07.678Z,32.06
2022-08-09T10:28:34.852Z,33.12
2022-08-09T10:34:10.208Z,31.04
2022-08-09T10:36:39.021Z,31.31
2022-08-09T10:39:16.069Z,31.98
2022-08-09T10:41:47.696Z,31.87
2022-08-09T10:44:23.009Z,30.92
2022-08-09T10:48:13.326Z,30.64
2022-08-09T10:50:04.648Z,29.88
2022-08-09T10:52:53.131Z,28.96
2022-08-09T10:55:24.491Z,29.94
2022-08-09T10:57:51.869Z,29.95
2022-08-09T11:00:31.261Z,30.78
2022-08-09T11:03:15.648Z,30.57
2022-08-09T11:06:18.693Z,29.58
2022-08-09T11:08:51.041Z,29.24
2022-08-09T11:11:20.489Z,29.48
2022-08-09T11:13:50.554Z,29.46
2022-08-09T11:16:39.187Z,29.97
2022-08-09T11:19:10.427Z,29.47
2022-08-09T11:22:05.244Z,30.11
2022-08-09T11:25:05.631Z,30.06
2022-08-09T11:28:03.534Z,29.40
2022-08-09T11:30:33.463Z,28.66
2022-08-09T11:33:10.987Z,29.38
2022-08-09T11:35:49.502Z,29.33
2022-08-09T11:38:34.058Z,29.58
2022-08-09T11:41:38.461Z,29.03
2022-08-09T11:44:07.783Z,29.34
2022-08-09T11:46:54.722Z,28.85
2022-08-09T11:50:53.687Z,29.64
2022-08-09T11:53:16.183Z,28.75
2022-08-09T11:55:52.036Z,29.00
2022-08-09T11:58:19.806Z,29.36
2022-08-09T12:01:01.590Z,29.45
2022-08-09T12:03:55.626Z,29.25
2022-08-09T12:06:26.723Z,29.67
2022-08-09T12:09:01.223Z,28.97
2022-08-09T12:11:28.676Z,28.87
2022-08-09T12:14:07.452Z,28.61
2022-08-09T12:16:40.282Z,28.72
2022-08-09T12:19:13.106Z,28.54
2022-08-09T12:21:50.820Z,29.21
2022-08-09T12:24:25.866Z,28.86
2022-08-09T12:28:59.288Z,28.51
2022-08-09T12:30:02.006Z,27.95
2022-08-09T12:32:41.920Z,27.84
2022-08-09T12:35:12.547Z,28.42
2022-08-09T12:37:51.748Z,28.17
2022-08-09T12:40:24.881Z,28.60
2022-08-09T12:42:52.000Z,29.21
2022-08-09T12:45:33.670Z,28.69
2022-08-09T12:48:19.966Z,28.72
2022-08-09T12:50:57.800Z,28.79
2022-08-09T12:53:38.804Z,29.07
2022-08-09T12:56:43.620Z,28.90
2022-08-09T12:59:16.892Z,28.56
2022-08-09T13:01:49.947Z,28.33
2022-08-09T13:04:35.988Z,27.48
2022-08-09T13:07:13.563Z,27.70
2022-08-09T13:09:52.700Z,28.34
2022-08-09T13:12:22.361Z,28.73
2022-08-09T13:14:54.309Z,28.77
2022-08-09T13:18:03.090Z,28.56
2022-08-09T13:20:18.864Z,28.85
2022-08-09T13:23:05.163Z,28.50
2022-08-09T13:25:52.973Z,28.69
2022-08-09T13:28:33.680Z,28.61
2022-08-09T13:32:12.383Z,28.45
2022-08-09T13:33:53.036Z,28.85
2022-08-09T13:36:24.698Z,28.75
2022-08-09T13:41:52.042Z,29.34
2022-08-09T13:42:15.531Z,28.58
2022-08-09T13:44:43.692Z,29.35
2022-08-09T13:47:27.026Z,28.79
2022-08-09T13:50:12.553Z,28.88
2022-08-09T13:52:45.964Z,28.51
2022-08-09T13:55:17.756Z,28.65
2022-08-09T13:57:56.000Z,28.40
2022-08-09T14:00:28.319Z,28.70
2022-08-09T14:03:04.201Z,28.97
2022-08-09T14:05:59.765Z,29.23
2022-08-09T14:08:30.511Z,28.48
2022-08-09T14:11:00.298Z,28.63
2022-08-09T14:14:15.153Z,28.23
2022-08-09T14:16:17.726Z,28.28
2022-08-09T14:18:49.811Z,28.38
2022-08-09T14:21:23.075Z,28.47
2022-08-09T14:23:56.532Z,27.93
2022-08-09T14:26:31.696Z,28.65
2022-08-09T14:29:01.900Z,28.89
2022-08-09T14:31:49.473Z,28.24
2022-08-09T14:34:17.391Z,28.76
2022-08-09T14:36:54.299Z,28.66
2022-08-09T14:39:21.133Z,28.59
2022-08-09T14:42:07.515Z,28.56
2022-08-09T14:44:48.541Z,28.98
2022-08-09T14:47:39.878Z,28.46
2022-08-09T14:50:08.639Z,29.00
2022-08-09T14:52:37.896Z,28.77
2022-08-09T14:55:06.945Z,28.31
2022-08-09T14:57:43.233Z,28.33
2022-08-09T15:00:11.735Z,28.84
2022-08-09T15:02:38.800Z,29.04
2022-08-09T15:05:07.500Z,28.86
2022-08-09T15:07:35.356Z,28.82
2022-08-09T15:10:10.765Z,28.58
2022-08-09T15:12:45.073Z,28.97
2022-08-09T15:15:12.997Z,29.07
2022-08-09T15:17:42.620Z,29.15
2022-08-09T15:20:15.401Z,29.75
2022-08-09T15:24:01.406Z,29.38
2022-08-09T15:25:52.328Z,29.54
2022-08-09T15:28:24.043Z,29.72
2022-08-09T15:31:01.963Z,29.69
2022-08-09T15:34:17.600Z,30.02
2022-08-09T15:36:21.949Z,30.34
2022-08-09T15:38:55.347Z,30.43
2022-08-09T15:41:23.342Z,30.76
2022-08-09T15:44:02.845Z,30.42
2022-08-09T15:46:33.028Z,30.02
2022-08-09T15:49:20.612Z,29.82
2022-08-09T15:52:05.235Z,30.26
2022-08-09T15:54:44.632Z,29.97
2022-08-09T15:57:34.611Z,30.02
2022-08-09T16:00:14.298Z,30.22
2022-08-09T16:02:54.077Z,30.76
2022-08-09T16:05:22.636Z,31.08
2022-08-09T16:07:50.799Z,30.61
2022-08-09T16:10:56.284Z,30.40
2022-08-09T16:13:05.266Z,30.78
2022-08-09T16:16:10.495Z,30.46
2022-08-09T16:18:32.735Z,30.89
2022-08-09T16:20:59.469Z,30.77
2022-08-09T16:23:26.982Z,31.29
2022-08-09T16:26:01.056Z,31.03
2022-08-09T16:28:29.685Z,31.49
2022-08-09T16:30:58.936Z,31.85
2022-08-09T16:33:26.910Z,31.55
2022-08-09T16:36:00.908Z,31.52
2022-08-09T16:38:31.282Z,31.42
2022-08-09T16:40:59.039Z,31.92
2022-08-09T16:43:30.855Z,32.13
2022-08-09T16:45:57.581Z,31.61
2022-08-09T16:48:38.161Z,31.70
2022-08-09T16:51:13.632Z,31.47
2022-08-09T16:54:17.983Z,31.85
2022-08-09T16:56:33.459Z,31.96
2022-08-09T16:59:06.719Z,32.05
2022-08-09T17:01:38.686Z,32.17
2022-08-09T17:04:06.741Z,32.33
2022-08-09T17:07:04.715Z,32.51
2022-08-09T17:09:44.856Z,32.72
2022-08-09T17:12:08.542Z,32.71
2022-08-09T17:14:35.430Z,32.80
2022-08-09T17:17:25.949Z,32.94
2022-08-09T17:20:30.596Z,33.01
2022-08-09T17:22:50.313Z,33.81
2022-08-09T17:25:20.361Z,34.04
2022-08-09T17:27:54.469Z,34.19
2022-08-09T17:30:28.896Z,34.39
2022-08-09T17:33:04.794Z,34.33
2022-08-09T17:35:34.869Z,34.75
2022-08-09T17:38:11.282Z,34.66
2022-08-09T17:40:41.537Z,34.74
2022-08-09T17:43:34.889Z,34.64
2022-08-09T17:46:04.390Z,35.01
2022-08-09T17:48:39.791Z,35.10
2022-08-09T17:51:18.087Z,34.99
2022-08-09T17:53:55.291Z,35.01
2022-08-09T17:56:27.218Z,35.42
2022-08-09T17:58:55.716Z,35.45
2022-08-09T18:01:23.680Z,35.80
2022-08-09T18:03:52.579Z,35.97
2022-08-09T18:06:31.647Z,36.33
2022-08-09T18:09:03.221Z,36.44
2022-08-09T18:12:05.216Z,36.72
2022-08-09T18:14:20.678Z,36.67
2022-08-09T18:16:48.792Z,36.84
2022-08-09T18:21:01.751Z,37.02
2022-08-09T18:22:04.285Z,37.03
2022-08-09T18:24:31.298Z,37.41
2022-08-09T18:27:01.402Z,37.56
2022-08-09T18:30:38.040Z,37.67
2022-08-09T18:32:19.025Z,38.18
2022-08-09T18:34:46.058Z,38.23
2022-08-09T18:37:48.119Z,38.14
2022-08-09T18:40:02.765Z,38.32
2022-08-09T18:42:30.465Z,39.00
2022-08-09T18:45:01.053Z,40.22
2022-08-09T18:47:37.176Z,40.85
2022-08-09T18:50:05.934Z,41.00
2022-08-09T18:52:36.191Z,41.07
2022-08-09T18:55:04.979Z,40.50
2022-08-09T18:57:38.592Z,40.22
2022-08-09T19:00:11.822Z,40.03
2022-08-09T19:02:43.659Z,39.76
2022-08-09T19:05:19.799Z,39.48
2022-08-09T19:07:59.319Z,39.66
2022-08-09T19:10:37.353Z,39.96
2022-08-09T19:13:23.216Z,40.62
2022-08-09T19:15:58.605Z,40.61
2022-08-09T19:18:33.925Z,40.65
2022-08-09T19:21:05.473Z,40.71
2022-08-09T19:24:37.975Z,40.84
2022-08-09T19:26:31.251Z,40.86
2022-08-09T19:29:01.658Z,40.86
2022-08-09T19:31:30.433Z,40.45
2022-08-09T19:34:21.552Z,40.77
2022-08-09T19:36:51.795Z,40.63
2022-08-09T19:39:43.944Z,40.96
2022-08-09T19:42:08.574Z,40.78
2022-08-09T19:44:37.035Z,41.15
2022-08-09T19:47:04.093Z,41.37
2022-08-09T19:50:10.139Z,41.44
2022-08-09T19:52:18.279Z,41.96
2022-08-09T19:54:45.622Z,41.97
2022-08-09T19:57:13.121Z,41.71
2022-08-09T20:00:05.787Z,42.06
2022-08-09T20:04:11.549Z,41.68
2022-08-09T20:05:16.670Z,41.58
2022-08-09T20:07:59.181Z,41.62
2022-08-09T20:10:36.446Z,41.20
2022-08-09T20:13:06.345Z,41.54
2022-08-09T20:16:35.606Z,41.59
2022-08-09T20:18:22.792Z,42.10
2022-08-09T20:20:55.915Z,42.37
2022-08-09T20:23:23.915Z,42.82
2022-08-09T20:25:53.545Z,42.90
2022-08-09T20:28:34.365Z,42.66
2022-08-09T20:31:09.279Z,42.60
2022-08-09T20:33:41.190Z,42.71
2022-08-09T20:36:12.432Z,42.35
2022-08-09T20:41:35.098Z,42.38
2022-08-09T20:44:10.236Z,42.38
2022-08-09T20:46:44.733Z,42.57
2022-08-09T20:49:16.130Z,42.58
2022-08-09T20:51:50.530Z,42.28
2022-08-09T20:54:18.730Z,42.18
2022-08-09T20:56:49.761Z,42.33
2022-08-09T20:59:50.297Z,42.27
2022-08-09T21:02:17.589Z,42.40
2022-08-09T21:05:54.547Z,42.62
2022-08-09T21:07:40.666Z,42.81
2022-08-09T21:10:12.134Z,42.96
2022-08-09T21:12:40.334Z,43.17
2022-08-09T21:15:15.029Z,43.38
2022-08-09T21:18:10.976Z,43.37
2022-08-09T21:20:30.721Z,43.39
2022-08-09T21:23:00.334Z,43.25
2022-08-09T21:25:56.364Z,43.48
2022-08-09T21:28:33.818Z,43.47
2022-08-09T21:31:16.681Z,43.98
2022-08-09T21:33:50.918Z,43.96
2022-08-09T21:36:25.956Z,43.91
2022-08-09T21:38:57.448Z,44.13
2022-08-09T21:42:03.975Z,44.59
2022-08-09T21:44:34.744Z,44.78
2022-08-09T21:47:11.766Z,45.01
2022-08-09T21:49:44.426Z,44.94
2022-08-09T21:52:17.161Z,45.13
2022-08-09T21:55:03.384Z,45.17
2022-08-09T21:57:39.219Z,45.36
2022-08-09T22:00:25.391Z,45.61
2022-08-09T22:02:58.072Z,45.91
2022-08-09T22:05:35.835Z,45.83
2022-08-09T22:08:13.655Z,45.93
2022-08-09T22:11:00.512Z,46.39
2022-08-09T22:13:37.391Z,46.70
2022-08-09T22:16:07.614Z,46.48
2022-08-09T22:18:37.292Z,46.68
2022-08-09T22:21:09.497Z,46.88
2022-08-09T22:23:59.998Z,46.94
2022-08-09T22:26:35.577Z,47.10
2022-08-09T22:29:09.552Z,47.08
2022-08-09T22:31:37.483Z,47.64
2022-08-09T22:34:09.649Z,47.55
2022-08-09T22:36:45.558Z,47.86
2022-08-09T22:39:20.552Z,48.11
2022-08-09T22:42:03.963Z,48.34
2022-08-09T22:44:33.939Z,48.32
2022-08-09T22:48:18.480Z,48.26
2022-08-09T22:49:51.814Z,48.47
2022-08-09T22:52:19.863Z,48.48
2022-08-09T22:54:47.703Z,48.54
2022-08-09T22:57:15.457Z,48.59
2022-08-09T22:59:56.405Z,48.62
2022-08-09T23:02:25.313Z,48.91
2022-08-09T23:04:54.718Z,48.89
2022-08-09T23:08:23.355Z,48.89
2022-08-09T23:10:31.894Z,49.16
2022-08-09T23:12:59.168Z,49.50
2022-08-09T23:15:27.187Z,49.63
2022-08-09T23:17:55.884Z,50.06
2022-08-09T23:20:23.392Z,50.01
2022-08-09T23:22:50.034Z,49.98
2022-08-09T23:25:16.710Z,50.48
2022-08-09T23:28:14.228Z,50.41
2022-08-09T23:30:30.663Z,50.21
2022-08-09T23:32:57.407Z,50.72
2022-08-09T23:35:24.158Z,50.51
2022-08-09T23:37:50.800Z,50.66
2022-08-09T23:40:17.488Z,50.60
2022-08-09T23:42:44.307Z,50.82
2022-08-09T23:45:11.251Z,51.14
2022-08-09T23:47:57.908Z,51.16
2022-08-09T23:50:24.640Z,51.35
2022-08-09T23:52:51.385Z,51.43
2022-08-09T23:55:18.153Z,51.55
2022-08-09T23:57:56.219Z,51.80
